Rechercher aéroport 
image banner adimage banner adimage banner ad
image banner ad

CA257 - Hornes Gulch

Situé à , Canada

ICAO - , IATA -

Données fournies par Airmate  

Information générale

Coordonnées: N47°49'58" W67°54'19"
Élévation : feet MSL.
 
Voir autres Aéroports à New Brunswick

Données opérationnelles

Special qualification required
Heure actuelle UTC:
Heure actuelle locale:
Météo à : KFVE - Northern Aroostook Rgnl ( 68 km )
METAR: KFVE 070012Z AUTO 19011KT 3/4SM -RA BR VV002 06/06 A2929 RMK AO2 P0002 T00610056
TAF: KFVE 062320Z 0700/0724 18018G30KT 1SM -RA BR VV002 WS020/20055KT TEMPO 0700/0702 1/4SM FG VV002 FM070300 22015G26KT 2SM -RA BR OVC003 WS020/23055KT FM070500 24014G23KT 3SM -RA OVC015 WS020/26045KT FM071000 24014G23KT 3SM -SHSN OVC025 FM071400 26014G26KT P6SM BKN050 FM072300 27010KT P6SM BKN080
Voir NOTAMs / SUP AIP / TFR affectant cet aéroport [VIEW]
Fréquences de communication: [VIEW]

Pistes:

Coordonnées de l'aéroport

Adresse: Canada

Vue satellite de CA257